Time;durP1;ratioP1;P1;durP2;ratioP2;P2;SDS_P1;SDS_P2;PMS_P1;PMS_P2;Temp;Humidity;BMP_temperature;BMP_pressure;BME280_temperature;BME280_humidity;BME280_pressure;Samples;Min_cycle;Max_cycle;Signal;HPM_P1;HPM_P2
2021/04/13 00:04:43;;;;;;;3.10;2.90;;;5.20;87.50;;;;;;10454519;28;20217;-76
2021/04/13 00:09:47;;;;;;;3.10;2.90;;;5.20;87.60;;;;;;10454572;28;20544;-75
2021/04/13 00:14:52;;;;;;;3.63;3.33;;;5.20;88.10;;;;;;10453133;28;20212;-75
2021/04/13 00:20:00;;;;;;;3.63;3.27;;;5.20;88.60;;;;;;10435769;28;20235;-75
2021/04/13 00:25:04;;;;;;;3.00;2.80;;;5.10;88.00;;;;;;10454128;28;20688;-77
2021/04/13 00:30:11;;;;;;;3.00;2.70;;;5.10;88.70;;;;;;10453951;28;20209;-77
2021/04/13 00:35:17;;;;;;;3.20;2.80;;;5.10;88.90;;;;;;10452278;28;20680;-75
2021/04/13 00:40:32;;;;;;;3.17;2.97;;;5.00;88.30;;;;;;10453553;28;20613;-76
2021/04/13 00:45:37;;;;;;;3.27;2.97;;;5.00;88.90;;;;;;10453556;28;20212;-75
2021/04/13 00:50:43;;;;;;;4.60;4.20;;;4.90;89.10;;;;;;10452423;28;20209;-76
2021/04/13 00:55:48;;;;;;;4.70;4.30;;;4.90;89.80;;;;;;10453241;28;20223;-75
2021/04/13 01:00:54;;;;;;;4.53;4.23;;;4.90;89.10;;;;;;10449382;28;20637;-76
2021/04/13 01:05:58;;;;;;;4.37;3.97;;;4.90;89.80;;;;;;10458037;28;20174;-76
2021/04/13 01:11:07;;;;;;;4.50;4.17;;;4.90;89.90;;;;;;10452992;28;20201;-75
2021/04/13 01:16:11;;;;;;;5.10;4.57;;;4.90;89.60;;;;;;10453248;28;20177;-75
2021/04/13 01:21:26;;;;;;;5.07;4.63;;;5.00;90.10;;;;;;10452744;28;20225;-75
2021/04/13 01:26:32;;;;;;;5.70;5.20;;;5.00;90.30;;;;;;10468278;28;20280;-76
2021/04/13 01:31:43;;;;;;;5.70;5.30;;;5.10;90.60;;;;;;10453926;28;20755;-76
2021/04/13 01:36:50;;;;;;;6.03;5.43;;;5.10;90.50;;;;;;10459256;28;20703;-75
2021/04/13 01:41:59;;;;;;;6.43;5.87;;;5.10;90.80;;;;;;10460478;28;20209;-76
2021/04/13 01:47:02;;;;;;;6.17;5.57;;;5.10;90.50;;;;;;10460724;28;20176;-76
2021/04/13 01:52:10;;;;;;;7.30;6.70;;;5.10;90.80;;;;;;10460554;28;20225;-75
2021/04/13 01:57:20;;;;;;;8.27;7.37;;;5.00;90.70;;;;;;10441894;28;20288;-76
2021/04/13 02:02:28;;;;;;;9.80;8.90;;;5.00;90.80;;;;;;10460393;28;20216;-76
2021/04/13 02:07:42;;;;;;;11.63;10.43;;;4.90;90.90;;;;;;10459557;28;20178;-75
2021/04/13 02:12:47;;;;;;;11.33;10.23;;;4.90;91.00;;;;;;10457989;28;20228;-75
2021/04/13 02:17:53;;;;;;;12.27;11.07;;;4.80;91.30;;;;;;10457475;28;20181;-76
2021/04/13 02:22:56;;;;;;;7.97;7.27;;;4.80;90.80;;;;;;10458900;28;20216;-75
2021/04/13 02:28:01;;;;;;;10.73;9.83;;;4.70;90.80;;;;;;10458467;28;20633;-76
2021/04/13 02:33:11;;;;;;;10.13;9.20;;;4.70;90.80;;;;;;10458606;28;20217;-76
2021/04/13 02:38:16;;;;;;;11.00;9.97;;;4.60;90.80;;;;;;10456945;28;20182;-76
2021/04/13 02:43:27;;;;;;;11.40;10.30;;;4.50;90.60;;;;;;10457769;28;20209;-77
2021/04/13 02:48:31;;;;;;;9.47;8.63;;;4.50;90.90;;;;;;10457747;28;20212;-75
2021/04/13 02:53:39;;;;;;;9.03;8.23;;;4.50;91.10;;;;;;10457787;28;20214;-76
2021/04/13 02:58:55;;;;;;;9.10;8.23;;;4.40;91.40;;;;;;10457031;28;20289;-77
2021/04/13 03:04:03;;;;;;;9.10;8.27;;;4.40;91.10;;;;;;10455726;28;20212;-75
2021/04/13 03:09:06;;;;;;;8.93;8.13;;;4.40;91.20;;;;;;10456585;28;20221;-76
2021/04/13 03:14:09;;;;;;;8.60;7.70;;;4.40;91.20;;;;;;10456027;28;20259;-77
2021/04/13 03:19:14;;;;;;;9.60;8.43;;;4.40;91.10;;;;;;10456021;28;20202;-76
2021/04/13 03:24:19;;;;;;;10.60;9.60;;;4.40;91.50;;;;;;10455104;28;20221;-76
2021/04/13 03:29:26;;;;;;;9.17;8.27;;;4.40;91.50;;;;;;10454465;28;20221;-76
2021/04/13 03:34:28;;;;;;;9.47;8.63;;;4.50;91.60;;;;;;10455687;28;20259;-77
2021/04/13 03:39:32;;;;;;;7.90;7.20;;;4.50;91.70;;;;;;10455105;28;20725;-75
2021/04/13 03:44:37;;;;;;;8.13;7.33;;;4.40;91.60;;;;;;10455466;28;20213;-77
2021/04/13 03:49:41;;;;;;;8.57;7.77;;;4.40;92.10;;;;;;10454859;28;20213;-77
2021/04/13 03:54:42;;;;;;;8.03;7.20;;;4.40;92.10;;;;;;10454221;28;20221;-77
2021/04/13 03:59:55;;;;;;;8.50;7.70;;;4.40;92.10;;;;;;10486615;28;20197;-76
2021/04/13 04:05:08;;;;;;;7.40;6.70;;;4.50;92.40;;;;;;10492277;28;20212;-76
2021/04/13 04:10:30;;;;;;;7.40;6.70;;;4.50;92.40;;;;;;10488398;28;21063;-77
2021/04/13 04:15:41;;;;;;;8.10;7.40;;;4.50;92.40;;;;;;10474427;28;20269;-77
2021/04/13 04:20:43;;;;;;;7.70;7.03;;;4.50;92.00;;;;;;10494679;28;20200;-76
2021/04/13 04:25:48;;;;;;;6.93;6.33;;;4.40;91.70;;;;;;10494892;28;20228;-76
2021/04/13 04:30:51;;;;;;;8.17;7.47;;;4.30;91.70;;;;;;10493530;28;20697;-77
2021/04/13 04:35:52;;;;;;;7.87;7.13;;;4.10;92.00;;;;;;10494661;28;20766;-76
2021/04/13 04:40:58;;;;;;;7.57;6.77;;;4.00;92.00;;;;;;10494476;28;20227;-76
2021/04/13 04:46:00;;;;;;;9.27;8.37;;;4.00;92.20;;;;;;10484673;28;20208;-77
2021/04/13 04:51:06;;;;;;;9.43;8.63;;;3.90;92.20;;;;;;10491811;28;20247;-77
2021/04/13 04:56:09;;;;;;;9.30;8.40;;;3.90;92.30;;;;;;10457424;28;20853;-77
2021/04/13 05:01:12;;;;;;;10.20;9.30;;;3.80;92.30;;;;;;10456542;28;20217;-78
2021/04/13 05:06:14;;;;;;;8.07;7.23;;;3.70;92.60;;;;;;10491445;28;20196;-78
2021/04/13 05:11:16;;;;;;;8.43;7.63;;;3.70;93.00;;;;;;10490930;28;20309;-78
2021/04/13 05:16:19;;;;;;;8.77;7.93;;;3.70;93.20;;;;;;10482491;28;20569;-78
2021/04/13 05:21:21;;;;;;;10.17;9.20;;;3.80;93.20;;;;;;10483663;28;20227;-77
2021/04/13 05:26:23;;;;;;;9.40;8.50;;;3.80;93.30;;;;;;10481506;28;20192;-77
2021/04/13 05:31:25;;;;;;;7.93;7.33;;;3.90;93.40;;;;;;10482053;28;20229;-77
2021/04/13 05:36:27;;;;;;;8.70;7.90;;;3.90;93.20;;;;;;10489241;28;20220;-78
2021/04/13 05:41:29;;;;;;;8.47;7.80;;;3.90;93.20;;;;;;10499151;28;20274;-77
2021/04/13 05:46:33;;;;;;;8.93;8.07;;;4.00;93.50;;;;;;10495902;28;20242;-77
2021/04/13 05:51:34;;;;;;;8.77;7.97;;;4.10;93.60;;;;;;10503331;28;20235;-77
2021/04/13 05:56:39;;;;;;;12.40;9.03;;;4.20;93.50;;;;;;10485091;28;20279;-78
2021/04/13 06:01:48;;;;;;;10.80;9.10;;;4.30;93.60;;;;;;10479711;28;20681;-78
2021/04/13 06:06:49;;;;;;;10.83;9.73;;;4.50;93.40;;;;;;10482145;28;20479;-78
2021/04/13 06:11:51;;;;;;;10.13;9.27;;;4.70;93.00;;;;;;10490882;28;20217;-78
2021/04/13 06:16:53;;;;;;;10.97;9.83;;;4.80;92.20;;;;;;10471581;28;20558;-77
2021/04/13 06:21:55;;;;;;;10.27;9.43;;;5.00;91.70;;;;;;10486376;28;20224;-78
2021/04/13 06:26:57;;;;;;;10.50;9.50;;;5.10;91.70;;;;;;10454282;28;20225;-78
2021/04/13 06:31:59;;;;;;;10.90;9.90;;;5.20;91.10;;;;;;10452805;28;20641;-77
2021/04/13 06:37:04;;;;;;;9.57;8.67;;;5.30;91.30;;;;;;10482953;28;20314;-79
2021/04/13 06:42:35;;;;;;;10.47;9.63;;;5.50;90.50;;;;;;10486267;28;20220;-78
2021/04/13 06:47:54;;;;;;;11.90;10.73;;;5.90;90.30;;;;;;10453051;28;20660;-78
2021/04/13 06:53:14;;;;;;;11.40;10.37;;;6.30;88.20;;;;;;10468001;28;20311;-78
2021/04/13 06:58:27;;;;;;;11.90;10.40;;;6.80;88.20;;;;;;10436465;28;20204;-78
2021/04/13 07:03:42;;;;;;;10.73;9.73;;;7.10;86.90;;;;;;10494594;28;20208;-78
2021/04/13 07:08:49;;;;;;;12.13;10.93;;;7.40;84.50;;;;;;10481326;28;20661;-78
2021/04/13 07:14:00;;;;;;;11.30;10.40;;;7.50;83.50;;;;;;10453306;28;20221;-78
2021/04/13 07:19:13;;;;;;;11.00;10.10;;;7.60;84.00;;;;;;10461453;28;20205;-78
2021/04/13 07:24:23;;;;;;;12.20;11.20;;;7.60;82.60;;;;;;10457212;28;20240;-78
2021/04/13 07:29:30;;;;;;;11.70;10.60;;;7.90;82.80;;;;;;10471298;28;20200;-78
2021/04/13 07:34:34;;;;;;;12.23;11.13;;;8.20;80.60;;;;;;10468955;28;20224;-78
2021/04/13 07:39:36;;;;;;;11.90;10.80;;;8.60;80.40;;;;;;10473276;28;20212;-78
2021/04/13 07:44:51;;;;;;;11.83;10.93;;;8.80;79.20;;;;;;10472221;28;20233;-78
2021/04/13 07:49:57;;;;;;;10.80;9.90;;;9.00;77.90;;;;;;10457718;28;20626;-78
2021/04/13 07:55:08;;;;;;;11.57;10.67;;;9.10;77.90;;;;;;10452410;28;20255;-78
2021/04/13 08:00:18;;;;;;;12.10;11.03;;;9.20;77.30;;;;;;10468092;28;20540;-78
2021/04/13 08:05:36;;;;;;;13.43;10.93;;;9.20;77.40;;;;;;10491088;28;20294;-78
2021/04/13 08:10:40;;;;;;;12.90;11.80;;;9.30;77.50;;;;;;10491255;28;20277;-78
2021/04/13 08:15:49;;;;;;;12.93;11.80;;;9.30;77.50;;;;;;10494117;28;20230;-78
2021/04/13 08:20:54;;;;;;;11.10;10.20;;;9.50;77.30;;;;;;10459651;28;20204;-78
2021/04/13 08:25:58;;;;;;;10.00;9.30;;;9.60;75.30;;;;;;10457410;28;20284;-78
2021/04/13 08:36:46;;;;;;;12.63;11.53;;;9.50;74.80;;;;;;10456832;28;20566;-78
2021/04/13 08:42:03;;;;;;;12.70;11.60;;;9.50;75.10;;;;;;10457980;28;20209;-79
2021/04/13 08:47:12;;;;;;;12.60;11.40;;;9.40;75.20;;;;;;10456165;28;20199;-79
2021/04/13 08:52:41;;;;;;;11.77;10.67;;;9.50;74.10;;;;;;10488009;23;20671;-78
2021/04/13 08:57:47;;;;;;;13.13;12.00;;;9.70;73.00;;;;;;10529969;28;20223;-78
2021/04/13 09:02:57;;;;;;;12.60;10.70;;;9.50;72.70;;;;;;10534927;28;20212;-77
2021/04/13 09:08:04;;;;;;;10.77;9.90;;;9.20;71.70;;;;;;10534468;28;20651;-77
2021/04/13 09:13:25;;;;;;;9.00;8.20;;;9.10;72.60;;;;;;10534959;28;20648;-77
2021/04/13 09:18:31;;;;;;;8.13;7.53;;;9.30;68.80;;;;;;10538239;28;20604;-77
2021/04/13 09:23:41;;;;;;;9.27;8.47;;;9.70;66.20;;;;;;10535326;28;20581;-76
2021/04/13 09:28:52;;;;;;;8.50;7.70;;;10.20;65.60;;;;;;10535117;28;20245;-78
2021/04/13 09:34:07;;;;;;;9.20;8.40;;;10.50;60.80;;;;;;10535572;28;20565;-77
2021/04/13 09:39:42;;;;;;;10.23;9.33;;;10.70;60.50;;;;;;10533784;28;20191;-77
2021/04/13 09:45:00;;;;;;;10.57;9.47;;;10.50;61.80;;;;;;10533324;28;20222;-77
2021/04/13 09:50:09;;;;;;;9.27;8.53;;;10.20;61.00;;;;;;10534224;28;20666;-77
2021/04/13 09:55:26;;;;;;;11.30;9.13;;;10.10;60.70;;;;;;10539535;28;20220;-77
2021/04/13 10:00:56;;;;;;;8.97;8.17;;;10.10;60.60;;;;;;10541275;28;20219;-78
2021/04/13 10:06:00;;;;;;;10.10;9.20;;;10.30;61.10;;;;;;10540415;28;20287;-78
2021/04/13 10:11:33;;;;;;;9.37;8.57;;;10.60;60.50;;;;;;10540292;28;20710;-78
2021/04/13 10:16:39;;;;;;;8.07;7.43;;;11.00;59.60;;;;;;10541306;28;20306;-78
2021/04/13 10:22:15;;;;;;;8.63;7.90;;;11.20;58.00;;;;;;10547134;28;20184;-78
2021/04/13 10:27:55;;;;;;;9.10;8.30;;;11.40;57.20;;;;;;10541391;28;20202;-78
2021/04/13 10:33:14;;;;;;;8.40;7.80;;;11.60;56.50;;;;;;10546623;28;20224;-77
2021/04/13 10:38:52;;;;;;;7.50;6.90;;;11.40;55.30;;;;;;10540199;28;20192;-78
2021/04/13 10:44:27;;;;;;;7.70;7.10;;;11.20;55.20;;;;;;10540419;28;20216;-77
2021/04/13 10:50:16;;;;;;;7.80;7.20;;;11.00;55.80;;;;;;10537882;28;20485;-78
2021/04/13 10:55:37;;;;;;;7.20;6.50;;;10.90;56.50;;;;;;10539260;28;20243;-77
2021/04/13 11:00:50;;;;;;;8.00;7.20;;;11.00;54.50;;;;;;10539676;28;20180;-77
2021/04/13 11:06:22;;;;;;;6.90;6.40;;;10.90;53.50;;;;;;10539645;28;20591;-77
2021/04/13 11:11:54;;;;;;;8.80;7.93;;;10.70;54.10;;;;;;10522211;28;20311;-77
2021/04/13 11:17:53;;;;;;;7.77;7.07;;;10.50;53.20;;;;;;10539047;28;20325;-77
2021/04/13 11:23:33;;;;;;;7.70;7.10;;;10.10;53.50;;;;;;10509834;28;20216;-77
2021/04/13 11:29:20;;;;;;;7.27;6.57;;;9.80;53.70;;;;;;10538374;28;20184;-77
2021/04/13 11:34:43;;;;;;;6.53;6.03;;;9.60;53.60;;;;;;10538331;28;20734;-77
2021/04/13 11:40:07;;;;;;;6.67;6.03;;;9.50;50.60;;;;;;10536925;28;20195;-77
2021/04/13 11:45:22;;;;;;;6.80;6.30;;;9.30;52.60;;;;;;10528374;28;20584;-77
2021/04/13 11:50:30;;;;;;;6.03;5.63;;;9.40;53.70;;;;;;10515511;28;20698;-77
2021/04/13 11:55:44;;;;;;;6.93;6.33;;;9.50;52.70;;;;;;10530267;28;20229;-77
2021/04/13 12:00:47;;;;;;;6.30;5.70;;;9.60;50.40;;;;;;10512825;28;20223;-77
2021/04/13 12:05:50;;;;;;;6.67;6.17;;;9.80;52.70;;;;;;10511830;28;20726;-77
2021/04/13 12:10:56;;;;;;;6.63;6.13;;;10.10;52.40;;;;;;10529653;28;20219;-77
2021/04/13 12:15:59;;;;;;;6.77;6.27;;;10.30;54.20;;;;;;10498020;28;20654;-77
2021/04/13 12:21:58;;;;;;;5.70;5.30;;;10.30;54.50;;;;;;10489649;28;20193;-77
2021/04/13 12:27:43;;;;;;;5.70;5.30;;;10.30;54.20;;;;;;10489746;28;20188;-77
2021/04/13 12:32:45;;;;;;;6.00;5.50;;;10.20;50.30;;;;;;10492306;28;20755;-77
2021/04/13 12:37:48;;;;;;;5.73;5.33;;;10.30;51.30;;;;;;10492802;28;20196;-77
2021/04/13 12:42:52;;;;;;;4.23;3.93;;;10.40;51.10;;;;;;10490642;28;20732;-78
2021/04/13 12:47:57;;;;;;;3.90;3.70;;;10.30;47.10;;;;;;10491755;28;20193;-78
2021/04/13 12:52:59;;;;;;;4.17;3.87;;;10.10;44.70;;;;;;10527328;28;20219;-78
2021/04/13 12:58:09;;;;;;;4.17;3.87;;;9.90;46.20;;;;;;10531657;28;20675;-78
2021/04/13 13:03:16;;;;;;;4.83;4.43;;;9.80;47.90;;;;;;10533934;28;20219;-78
2021/04/13 13:08:21;;;;;;;4.67;4.27;;;9.80;48.70;;;;;;10535099;28;20220;-78
2021/04/13 13:13:29;;;;;;;4.73;4.43;;;10.00;48.50;;;;;;10535314;28;20224;-78
2021/04/13 13:18:40;;;;;;;4.53;4.23;;;10.40;48.50;;;;;;10516233;28;20738;-78
2021/04/13 13:23:44;;;;;;;5.30;4.90;;;10.70;49.40;;;;;;10537947;28;20215;-78
2021/04/13 13:28:45;;;;;;;4.90;4.50;;;10.80;51.10;;;;;;10537507;28;20207;-78
2021/04/13 13:33:48;;;;;;;6.00;5.50;;;10.80;50.90;;;;;;10546875;28;20391;-78
2021/04/13 13:38:50;;;;;;;5.30;4.90;;;10.70;52.70;;;;;;10537072;28;20203;-77
2021/04/13 13:43:53;;;;;;;5.57;5.13;;;10.50;53.00;;;;;;10537844;28;20212;-78
2021/04/13 13:48:57;;;;;;;5.43;4.93;;;10.30;54.00;;;;;;10536468;28;20648;-77
2021/04/13 13:54:13;;;;;;;5.17;4.40;;;10.10;51.20;;;;;;10496373;28;20228;-78
2021/04/13 13:59:28;;;;;;;3.60;3.30;;;10.00;50.30;;;;;;10493937;28;20223;-77
2021/04/13 14:04:33;;;;;;;3.57;3.27;;;9.80;47.50;;;;;;10494051;28;20205;-78
2021/04/13 14:09:36;;;;;;;3.40;3.20;;;9.80;47.90;;;;;;10494168;28;20270;-78
2021/04/13 14:14:39;;;;;;;3.90;3.60;;;9.80;46.30;;;;;;10493578;28;20638;-77
2021/04/13 14:19:42;;;;;;;4.57;3.40;;;9.80;48.10;;;;;;10496314;28;20207;-78
2021/04/13 14:24:46;;;;;;;4.20;3.87;;;9.80;47.70;;;;;;10494247;28;20216;-78
2021/04/13 14:30:00;;;;;;;3.87;3.57;;;9.90;46.90;;;;;;10494673;28;20192;-77
2021/04/13 14:35:05;;;;;;;4.63;4.23;;;10.00;45.40;;;;;;10507437;28;20205;-77
2021/04/13 14:40:12;;;;;;;4.20;3.90;;;10.30;46.70;;;;;;10508134;28;20262;-78
2021/04/13 14:45:16;;;;;;;4.30;4.00;;;10.60;46.50;;;;;;10496345;28;20696;-78
2021/04/13 14:50:22;;;;;;;5.00;4.70;;;10.90;44.40;;;;;;10494871;28;20215;-78
2021/04/13 14:55:25;;;;;;;3.67;3.37;;;11.10;44.20;;;;;;10490959;22;20264;-79
2021/04/13 15:00:28;;;;;;;4.83;4.20;;;11.30;44.60;;;;;;10451981;28;20717;-79
2021/04/13 15:05:31;;;;;;;5.40;5.00;;;11.40;43.00;;;;;;10452236;28;20209;-79
2021/04/13 15:10:36;;;;;;;5.37;4.90;;;11.50;42.70;;;;;;10434536;28;20276;-79
2021/04/13 15:15:38;;;;;;;3.30;3.10;;;11.40;45.00;;;;;;10453099;28;20696;-79
2021/04/13 15:20:41;;;;;;;3.90;3.53;;;11.40;43.40;;;;;;10455529;28;20220;-79
2021/04/13 15:25:43;;;;;;;3.67;3.47;;;11.20;43.90;;;;;;10432530;28;20220;-79
2021/04/13 15:30:47;;;;;;;5.53;3.80;;;10.90;43.10;;;;;;10441110;28;20301;-79
2021/04/13 15:35:55;;;;;;;4.10;3.73;;;10.70;43.80;;;;;;10428182;28;20222;-78
2021/04/13 15:41:01;;;;;;;4.70;3.80;;;10.50;44.50;;;;;;10410331;28;20194;-77
2021/04/13 15:46:13;;;;;;;4.83;4.43;;;10.30;43.10;;;;;;10423125;28;20251;-78
2021/04/13 15:51:19;;;;;;;5.53;5.03;;;10.10;47.00;;;;;;10422496;28;20321;-77
2021/04/13 15:56:23;;;;;;;5.70;5.20;;;10.00;48.90;;;;;;10407773;28;20234;-77
2021/04/13 16:01:25;;;;;;;5.40;4.90;;;9.90;50.70;;;;;;10409743;28;20225;-77
2021/04/13 16:06:28;;;;;;;4.80;4.50;;;9.80;52.30;;;;;;10408648;28;20236;-78
2021/04/13 16:11:30;;;;;;;4.87;4.37;;;9.90;51.30;;;;;;10414600;28;20228;-77
2021/04/13 16:16:31;;;;;;;4.50;4.10;;;9.90;50.70;;;;;;10440968;28;20215;-77
2021/04/13 16:21:35;;;;;;;4.10;3.80;;;10.10;49.10;;;;;;10449746;28;20668;-77
2021/04/13 16:26:38;;;;;;;4.40;4.10;;;10.30;48.00;;;;;;10448725;28;20217;-78
2021/04/13 16:31:42;;;;;;;4.80;4.40;;;10.40;47.10;;;;;;10449654;28;20221;-77
2021/04/13 16:36:47;;;;;;;3.60;3.30;;;10.60;46.40;;;;;;10438993;28;20309;-78
2021/04/13 16:41:50;;;;;;;5.00;4.50;;;10.60;46.60;;;;;;10414010;28;20202;-78
2021/04/13 16:46:54;;;;;;;4.70;4.30;;;10.60;45.90;;;;;;10447459;28;20291;-77
2021/04/13 16:52:00;;;;;;;4.30;4.00;;;10.40;45.10;;;;;;10434932;28;20507;-78
2021/04/13 16:57:03;;;;;;;4.27;3.97;;;10.20;47.60;;;;;;10431579;28;20225;-77
2021/04/13 17:02:15;;;;;;;4.17;3.77;;;10.10;45.90;;;;;;10449733;28;20657;-77
2021/04/13 17:07:28;;;;;;;4.33;3.93;;;10.00;46.50;;;;;;10444518;28;20189;-78
2021/04/13 17:12:35;;;;;;;4.13;3.57;;;10.00;47.80;;;;;;10438742;28;20276;-77
2021/04/13 17:17:42;;;;;;;3.30;3.10;;;9.90;45.90;;;;;;10452551;28;20205;-77
2021/04/13 17:22:50;;;;;;;3.73;3.43;;;9.80;45.70;;;;;;10426506;28;20241;-77
2021/04/13 17:27:56;;;;;;;5.60;4.60;;;9.80;45.40;;;;;;10416090;28;20676;-77
2021/04/13 17:33:01;;;;;;;3.47;3.17;;;9.70;45.50;;;;;;10441129;28;20225;-77
2021/04/13 17:38:21;;;;;;;6.17;4.00;;;9.70;46.70;;;;;;10431550;28;20753;-78
2021/04/13 17:43:28;;;;;;;3.80;3.60;;;9.70;46.10;;;;;;10419733;28;20640;-77
2021/04/13 17:48:32;;;;;;;3.10;2.90;;;9.70;47.30;;;;;;10436494;28;20197;-77
2021/04/13 17:53:39;;;;;;;4.00;3.50;;;9.80;45.80;;;;;;10427286;28;20308;-77
2021/04/13 17:58:41;;;;;;;4.43;4.10;;;9.80;44.80;;;;;;10418574;28;20835;-77
2021/04/13 18:03:47;;;;;;;3.77;2.90;;;9.80;47.00;;;;;;10442753;28;20209;-77
2021/04/13 18:08:55;;;;;;;4.17;3.83;;;9.70;47.60;;;;;;10435125;28;20232;-77
2021/04/13 18:14:00;;;;;;;3.70;3.40;;;9.70;48.70;;;;;;10416179;28;20225;-77
2021/04/13 18:19:07;;;;;;;3.70;3.40;;;9.80;47.50;;;;;;10433633;28;20204;-77
2021/04/13 18:24:16;;;;;;;4.13;3.83;;;9.70;47.50;;;;;;10434206;28;20693;-78
2021/04/13 18:29:21;;;;;;;4.53;3.63;;;9.70;49.20;;;;;;10413248;28;20190;-77
2021/04/13 18:34:28;;;;;;;5.73;3.57;;;9.70;47.90;;;;;;10437021;28;20229;-77
2021/04/13 18:39:33;;;;;;;3.20;3.00;;;9.60;47.20;;;;;;10443696;28;20673;-78
2021/04/13 18:44:41;;;;;;;3.40;3.20;;;9.50;48.30;;;;;;10453292;28;20244;-77
2021/04/13 18:49:45;;;;;;;3.50;3.30;;;9.40;48.20;;;;;;10432438;28;20210;-77
2021/04/13 18:54:52;;;;;;;3.70;3.40;;;9.30;46.70;;;;;;10452288;28;20229;-77
2021/04/13 18:59:57;;;;;;;4.50;4.10;;;9.20;48.30;;;;;;10452149;28;20646;-77
2021/04/13 19:05:00;;;;;;;3.83;3.53;;;9.10;48.90;;;;;;10452427;28;20875;-78
2021/04/13 19:10:07;;;;;;;3.90;3.50;;;9.00;49.60;;;;;;10451020;28;20229;-77
2021/04/13 19:15:14;;;;;;;4.83;3.70;;;8.90;49.60;;;;;;10451397;28;20236;-77
2021/04/13 19:20:24;;;;;;;4.63;4.23;;;8.80;50.50;;;;;;10450018;28;20208;-77
2021/04/13 19:25:31;;;;;;;4.10;3.77;;;8.60;51.40;;;;;;10434828;28;20229;-77
2021/04/13 19:30:37;;;;;;;3.70;3.50;;;8.50;51.90;;;;;;10416590;28;20198;-77
2021/04/13 19:35:46;;;;;;;5.03;4.63;;;8.20;52.70;;;;;;10430949;28;20360;-78
2021/04/13 19:40:50;;;;;;;5.13;4.73;;;8.00;53.40;;;;;;10445262;28;20216;-77
2021/04/13 19:45:54;;;;;;;4.40;4.00;;;7.80;54.70;;;;;;10429990;28;20313;-77
2021/04/13 19:51:04;;;;;;;5.13;4.40;;;7.70;55.50;;;;;;10414303;28;20243;-77
2021/04/13 19:56:10;;;;;;;4.93;4.53;;;7.50;55.90;;;;;;10439178;28;20422;-77
2021/04/13 20:01:15;;;;;;;5.00;4.60;;;7.40;55.90;;;;;;10431930;28;20208;-77
2021/04/13 20:06:20;;;;;;;4.57;4.17;;;7.30;56.10;;;;;;10437680;28;20222;-77
2021/04/13 20:11:31;;;;;;;5.30;4.90;;;7.20;56.60;;;;;;10423161;28;20565;-77
2021/04/13 20:16:37;;;;;;;5.10;4.47;;;7.10;56.90;;;;;;10435114;28;20226;-77
2021/04/13 20:21:40;;;;;;;5.00;4.60;;;7.00;57.50;;;;;;10430015;28;20240;-77
2021/04/13 20:26:48;;;;;;;5.17;4.67;;;6.90;58.00;;;;;;10428900;28;20253;-77
2021/04/13 20:32:00;;;;;;;4.60;4.30;;;6.80;58.30;;;;;;10434195;28;20221;-77
2021/04/13 20:42:48;;;;;;;6.93;4.87;;;6.60;58.00;;;;;;10441131;28;20189;-77
2021/04/13 20:47:55;;;;;;;3.47;3.27;;;6.50;58.30;;;;;;10444586;28;20224;-77
2021/04/13 20:53:01;;;;;;;4.07;3.67;;;6.40;58.80;;;;;;10429210;28;20232;-77
2021/04/13 20:58:08;;;;;;;5.27;3.97;;;6.30;59.10;;;;;;10444171;28;20236;-77
2021/04/13 21:03:16;;;;;;;4.07;3.77;;;6.20;59.40;;;;;;10424694;28;20221;-77
2021/04/13 21:08:23;;;;;;;4.67;3.97;;;6.20;59.60;;;;;;10432655;28;20202;-77
2021/04/13 21:13:29;;;;;;;4.83;4.43;;;6.10;59.70;;;;;;10404889;28;20217;-77
2021/04/13 21:18:33;;;;;;;4.53;4.13;;;6.00;60.30;;;;;;10413345;28;20208;-78
2021/04/13 21:23:40;;;;;;;4.60;4.20;;;6.00;60.40;;;;;;10444867;28;20788;-78
2021/04/13 21:28:45;;;;;;;4.40;4.00;;;5.90;60.70;;;;;;10445488;28;20197;-78
2021/04/13 21:33:51;;;;;;;4.20;3.90;;;5.80;61.30;;;;;;10446094;28;20971;-78
2021/04/13 21:38:55;;;;;;;4.33;4.03;;;5.70;61.80;;;;;;10445525;28;20186;-77
2021/04/13 21:44:02;;;;;;;7.03;5.10;;;5.60;62.40;;;;;;10445753;28;20352;-77
2021/04/13 21:49:10;;;;;;;6.60;6.10;;;5.50;63.70;;;;;;10445447;28;20193;-77
2021/04/13 21:54:16;;;;;;;6.10;5.60;;;5.50;63.80;;;;;;10451704;28;20677;-77
2021/04/13 21:59:23;;;;;;;5.60;5.10;;;5.40;64.20;;;;;;10453133;28;20189;-77
2021/04/13 22:04:28;;;;;;;5.73;4.53;;;5.40;64.20;;;;;;10452798;28;20223;-77
2021/04/13 22:09:31;;;;;;;4.00;3.70;;;5.40;64.40;;;;;;10443918;28;20271;-77
2021/04/13 22:14:37;;;;;;;5.60;3.80;;;5.30;64.50;;;;;;10440421;28;20267;-77
2021/04/13 22:19:42;;;;;;;4.37;3.97;;;5.20;65.00;;;;;;10446336;28;20289;-78
2021/04/13 22:24:44;;;;;;;4.07;3.70;;;5.20;65.30;;;;;;10437348;28;20217;-78
2021/04/13 22:29:51;;;;;;;5.23;4.43;;;5.10;65.70;;;;;;10462366;28;20217;-77
2021/04/13 22:34:58;;;;;;;4.80;4.40;;;5.00;66.10;;;;;;10451774;28;20639;-77
2021/04/13 22:40:00;;;;;;;4.97;4.50;;;5.00;66.30;;;;;;10457057;28;20826;-77
2021/04/13 22:45:07;;;;;;;4.80;4.17;;;4.90;66.80;;;;;;10460094;28;20216;-78
2021/04/13 22:50:11;;;;;;;4.13;3.83;;;4.90;67.00;;;;;;10465331;28;20223;-78
2021/04/13 22:55:17;;;;;;;4.53;4.20;;;4.90;67.10;;;;;;10464605;28;20241;-78
2021/04/13 23:00:27;;;;;;;6.30;4.33;;;4.90;67.80;;;;;;10461128;28;20197;-78
2021/04/13 23:05:29;;;;;;;4.70;4.30;;;4.80;67.70;;;;;;10465867;28;20215;-77
2021/04/13 23:10:31;;;;;;;8.40;4.20;;;4.80;68.30;;;;;;10470633;28;20280;-77
2021/04/13 23:15:33;;;;;;;6.43;4.43;;;4.70;68.20;;;;;;10460380;28;20213;-77
2021/04/13 23:20:35;;;;;;;4.40;4.10;;;4.70;68.50;;;;;;10458560;28;20246;-77
2021/04/13 23:25:37;;;;;;;4.80;4.27;;;4.70;68.70;;;;;;10457983;28;20217;-78
2021/04/13 23:30:39;;;;;;;4.60;4.20;;;4.70;68.80;;;;;;10457508;28;20238;-77
2021/04/13 23:35:41;;;;;;;4.43;4.13;;;4.70;68.80;;;;;;10459587;28;20217;-77
2021/04/13 23:40:43;;;;;;;4.60;4.20;;;4.60;68.90;;;;;;10456749;28;20197;-77
2021/04/13 23:45:46;;;;;;;4.43;4.00;;;4.60;68.90;;;;;;10456778;28;20244;-77
2021/04/13 23:50:47;;;;;;;3.97;3.67;;;4.60;69.10;;;;;;10457263;28;20193;-78
2021/04/13 23:55:49;;;;;;;3.67;3.47;;;4.60;68.90;;;;;;10456131;28;20290;-77
